createdAt,value
2023-05-09T00:01:07.553Z,11.84
2023-05-09T00:04:09.269Z,11.81
2023-05-09T00:07:10.802Z,11.80
2023-05-09T00:10:12.403Z,11.79
2023-05-09T00:13:14.069Z,11.75
2023-05-09T00:16:16.129Z,11.72
2023-05-09T00:19:17.856Z,11.69
2023-05-09T00:22:23.826Z,11.64
2023-05-09T00:25:25.463Z,11.62
2023-05-09T00:28:27.559Z,11.58
2023-05-09T00:31:29.164Z,11.53
2023-05-09T00:34:30.747Z,11.51
2023-05-09T00:37:32.305Z,11.48
2023-05-09T00:40:33.834Z,11.46
2023-05-09T00:43:35.755Z,11.42
2023-05-09T00:46:37.340Z,11.39
2023-05-09T00:49:39.035Z,11.35
2023-05-09T00:52:41.602Z,11.32
2023-05-09T00:55:43.166Z,11.28
2023-05-09T00:58:45.289Z,11.25
2023-05-09T01:01:47.032Z,11.22
2023-05-09T01:04:48.715Z,11.17
2023-05-09T01:07:57.277Z,11.14
2023-05-09T01:11:09.469Z,11.08
2023-05-09T01:14:41.915Z,11.05
2023-05-09T01:18:03.827Z,11.02
2023-05-09T01:21:08.924Z,10.99
2023-05-09T01:24:26.307Z,10.97
2023-05-09T01:27:27.811Z,10.94
2023-05-09T01:30:31.394Z,10.90
2023-05-09T01:33:36.456Z,10.88
2023-05-09T01:36:42.349Z,10.84
2023-05-09T01:39:49.249Z,10.79
2023-05-09T01:43:00.055Z,10.74
2023-05-09T01:46:04.154Z,10.68
2023-05-09T01:49:08.509Z,10.62
2023-05-09T01:52:16.935Z,10.57
2023-05-09T01:55:20.033Z,10.52
2023-05-09T01:58:22.503Z,10.50
2023-05-09T02:01:24.693Z,10.47
2023-05-09T02:04:28.451Z,10.46
2023-05-09T02:07:30.442Z,10.42
2023-05-09T02:10:33.475Z,10.40
2023-05-09T02:13:35.186Z,10.36
2023-05-09T02:16:39.521Z,10.34
2023-05-09T02:19:41.091Z,10.31
2023-05-09T02:22:43.502Z,10.28
2023-05-09T02:25:46.460Z,10.27
2023-05-09T02:28:48.634Z,10.27
2023-05-09T02:31:51.717Z,10.24
2023-05-09T02:34:54.588Z,10.19
2023-05-09T02:37:58.668Z,10.16
2023-05-09T02:41:00.282Z,10.13
2023-05-09T02:44:01.819Z,10.09
2023-05-09T02:47:06.375Z,10.06
2023-05-09T02:50:08.420Z,10.03
2023-05-09T02:53:10.135Z,9.99
2023-05-09T02:56:11.731Z,9.94
2023-05-09T02:59:13.454Z,9.87
2023-05-09T03:02:15.202Z,9.82
2023-05-09T03:05:17.702Z,9.77
2023-05-09T03:08:19.290Z,9.71
2023-05-09T03:11:21.027Z,9.65
2023-05-09T03:14:22.707Z,9.60
2023-05-09T03:17:24.269Z,9.56
2023-05-09T03:20:27.498Z,9.54
2023-05-09T03:23:29.050Z,9.51
2023-05-09T03:26:30.799Z,9.50
2023-05-09T03:29:32.394Z,9.47
2023-05-09T03:32:34.031Z,9.43
2023-05-09T03:35:35.578Z,9.40
2023-05-09T03:38:37.205Z,9.39
2023-05-09T03:41:38.830Z,9.40
2023-05-09T03:44:40.446Z,9.38
2023-05-09T03:47:42.098Z,9.35
2023-05-09T03:50:43.755Z,9.28
2023-05-09T03:53:48.328Z,9.23
2023-05-09T03:56:49.882Z,9.19
2023-05-09T03:59:51.426Z,9.14
2023-05-09T04:02:53.653Z,9.12
2023-05-09T04:05:55.552Z,9.09
2023-05-09T04:08:57.194Z,9.07
2023-05-09T04:11:58.724Z,9.08
2023-05-09T04:15:00.454Z,9.10
2023-05-09T04:18:02.079Z,9.13
2023-05-09T04:21:03.794Z,9.15
2023-05-09T04:24:05.879Z,9.15
2023-05-09T04:27:07.988Z,9.14
2023-05-09T04:30:10.429Z,9.17
2023-05-09T04:33:12.038Z,9.20
2023-05-09T04:36:13.610Z,9.22
2023-05-09T04:39:15.126Z,9.24
2023-05-09T04:42:16.846Z,9.27
2023-05-09T04:45:18.462Z,9.31
2023-05-09T04:48:20.009Z,9.33
2023-05-09T04:51:21.545Z,9.32
2023-05-09T04:54:23.109Z,9.36
2023-05-09T04:57:24.627Z,9.41
2023-05-09T05:00:26.189Z,9.42
2023-05-09T05:03:27.734Z,9.45
2023-05-09T05:06:29.320Z,9.47
2023-05-09T05:09:31.212Z,9.52
2023-05-09T05:12:32.780Z,9.58
2023-05-09T05:15:34.329Z,9.63
2023-05-09T05:18:36.016Z,9.68
2023-05-09T05:21:37.701Z,9.70
2023-05-09T05:24:39.265Z,9.71
2023-05-09T05:27:40.967Z,9.70
2023-05-09T05:30:42.561Z,9.68
2023-05-09T05:33:44.059Z,9.67
2023-05-09T05:36:45.773Z,9.65
2023-05-09T05:39:47.298Z,9.63
2023-05-09T05:42:48.924Z,9.66
2023-05-09T05:45:51.112Z,9.71
2023-05-09T05:48:52.720Z,9.87
2023-05-09T05:51:54.307Z,10.00
2023-05-09T05:54:56.306Z,10.04
2023-05-09T05:57:57.845Z,10.08
2023-05-09T06:00:59.440Z,10.12
2023-05-09T06:04:01.073Z,10.19
2023-05-09T06:07:02.727Z,10.23
2023-05-09T06:10:04.709Z,10.26
2023-05-09T06:13:06.492Z,10.33
2023-05-09T06:16:18.715Z,10.43
2023-05-09T06:19:21.764Z,10.53
2023-05-09T06:22:23.388Z,10.61
2023-05-09T06:25:24.935Z,10.68
2023-05-09T06:28:26.981Z,10.76
2023-05-09T06:31:28.760Z,10.86
2023-05-09T06:34:30.370Z,10.97
2023-05-09T06:37:35.035Z,11.10
2023-05-09T06:40:36.871Z,11.24
2023-05-09T06:43:38.482Z,11.34
2023-05-09T06:46:40.131Z,11.46
2023-05-09T06:49:41.775Z,11.56
2023-05-09T06:52:43.330Z,11.68
2023-05-09T06:55:45.066Z,11.79
2023-05-09T06:58:46.830Z,11.94
2023-05-09T07:01:48.448Z,12.07
2023-05-09T07:04:50.153Z,12.20
2023-05-09T07:07:51.807Z,12.33
2023-05-09T07:10:53.496Z,12.44
2023-05-09T07:13:55.102Z,12.56
2023-05-09T07:17:09.831Z,12.69
2023-05-09T07:20:15.790Z,12.86
2023-05-09T07:23:17.342Z,13.03
2023-05-09T07:26:18.956Z,13.17
2023-05-09T07:29:20.897Z,13.33
2023-05-09T07:32:22.455Z,13.47
2023-05-09T07:35:24.050Z,13.57
2023-05-09T07:38:25.626Z,13.67
2023-05-09T07:41:27.170Z,13.76
2023-05-09T07:44:28.751Z,13.88
2023-05-09T07:47:30.309Z,14.00
2023-05-09T07:50:32.005Z,14.12
2023-05-09T07:53:33.615Z,14.23
2023-05-09T07:56:35.292Z,14.35
2023-05-09T07:59:37.063Z,14.39
2023-05-09T08:02:38.800Z,14.40
2023-05-09T08:05:40.812Z,14.46
2023-05-09T08:08:42.420Z,14.58
2023-05-09T08:11:44.640Z,14.72
2023-05-09T08:14:47.150Z,14.86
2023-05-09T08:17:48.777Z,14.96
2023-05-09T08:20:51.053Z,15.07
2023-05-09T08:23:53.235Z,15.16
2023-05-09T08:26:54.814Z,15.25
2023-05-09T08:29:56.353Z,15.32
2023-05-09T08:32:58.286Z,15.39
2023-05-09T08:36:00.282Z,15.50
2023-05-09T08:39:02.341Z,15.59
2023-05-09T08:42:04.089Z,15.63
2023-05-09T08:45:16.790Z,15.70
2023-05-09T08:48:19.281Z,15.76
2023-05-09T08:51:21.548Z,15.91
2023-05-09T08:54:23.960Z,16.03
2023-05-09T08:57:27.345Z,16.13
2023-05-09T09:00:29.847Z,16.21
2023-05-09T09:03:32.117Z,16.28
2023-05-09T09:06:35.331Z,16.40
2023-05-09T09:09:37.542Z,16.51
2023-05-09T09:12:40.087Z,16.61
2023-05-09T09:15:43.948Z,16.72
2023-05-09T09:18:46.546Z,16.86
2023-05-09T09:21:49.846Z,17.00
2023-05-09T09:24:51.564Z,17.15
2023-05-09T09:27:53.120Z,17.27
2023-05-09T09:30:54.713Z,17.35
2023-05-09T09:34:01.285Z,17.47
2023-05-09T09:37:02.876Z,17.61
2023-05-09T09:40:08.620Z,17.78
2023-05-09T09:43:10.156Z,17.94
2023-05-09T09:46:14.227Z,18.08
2023-05-09T09:49:26.626Z,18.14
2023-05-09T09:52:28.176Z,18.18
2023-05-09T09:55:30.025Z,18.24
2023-05-09T09:58:31.577Z,18.26
2023-05-09T10:01:33.173Z,18.32
2023-05-09T10:04:39.412Z,18.39
2023-05-09T10:07:41.016Z,18.41
2023-05-09T10:10:42.777Z,18.42
2023-05-09T10:13:45.931Z,18.44
2023-05-09T10:16:52.290Z,18.53
2023-05-09T10:19:55.492Z,18.61
2023-05-09T10:23:02.284Z,18.69
2023-05-09T10:26:27.595Z,18.76
2023-05-09T10:29:31.911Z,18.83
2023-05-09T10:32:51.810Z,18.93
2023-05-09T10:35:56.336Z,19.08
2023-05-09T10:38:58.447Z,19.16
2023-05-09T10:42:00.786Z,19.26
2023-05-09T10:45:03.144Z,19.33
2023-05-09T10:48:08.763Z,19.38
2023-05-09T10:51:11.354Z,19.38
2023-05-09T10:54:30.090Z,19.42
2023-05-09T10:57:32.569Z,19.42
2023-05-09T11:00:34.154Z,19.46
2023-05-09T11:03:58.688Z,19.50
2023-05-09T11:07:00.866Z,19.57
2023-05-09T11:10:10.557Z,19.68
2023-05-09T11:13:12.200Z,19.75
2023-05-09T11:16:13.874Z,19.91
2023-05-09T11:19:34.122Z,19.99
2023-05-09T11:22:41.399Z,19.98
2023-05-09T11:25:46.811Z,20.01
2023-05-09T11:28:54.678Z,20.11
2023-05-09T11:32:07.289Z,20.06
2023-05-09T11:35:10.359Z,20.04
2023-05-09T11:38:21.342Z,20.03
2023-05-09T11:41:23.029Z,20.03
2023-05-09T11:44:25.100Z,20.10
2023-05-09T11:47:28.920Z,20.19
2023-05-09T11:50:30.655Z,20.22
2023-05-09T11:53:32.385Z,20.28
2023-05-09T11:56:39.886Z,20.35
2023-05-09T11:59:41.477Z,20.41
2023-05-09T12:02:45.875Z,20.51
2023-05-09T12:05:51.050Z,20.58
2023-05-09T12:08:55.152Z,20.67
2023-05-09T12:11:56.672Z,20.79
2023-05-09T12:15:04.558Z,20.93
2023-05-09T12:18:08.549Z,20.98
2023-05-09T12:21:10.637Z,21.02
2023-05-09T12:24:12.231Z,21.13
2023-05-09T12:27:13.823Z,21.20
2023-05-09T12:30:16.224Z,21.18
2023-05-09T12:33:18.624Z,21.20
2023-05-09T12:36:20.192Z,21.23
2023-05-09T12:39:23.084Z,21.20
2023-05-09T12:42:28.079Z,21.22
2023-05-09T12:45:32.969Z,21.19
2023-05-09T12:48:37.964Z,21.18
2023-05-09T12:51:51.264Z,21.20
2023-05-09T12:54:53.748Z,21.29
2023-05-09T12:58:03.404Z,21.34
2023-05-09T13:01:05.738Z,21.29
2023-05-09T13:04:07.782Z,21.22
2023-05-09T13:07:13.091Z,21.13
2023-05-09T13:10:18.499Z,21.06
2023-05-09T13:13:21.788Z,21.04
2023-05-09T13:16:23.825Z,21.11
2023-05-09T13:19:25.492Z,21.10
2023-05-09T13:22:27.333Z,20.99
2023-05-09T13:25:28.988Z,20.91
2023-05-09T13:28:30.747Z,20.86
2023-05-09T13:31:32.367Z,20.80
2023-05-09T13:34:33.891Z,20.76
2023-05-09T13:37:35.921Z,20.74
2023-05-09T13:40:38.003Z,20.69
2023-05-09T13:43:42.609Z,20.64
2023-05-09T13:46:45.963Z,20.53
2023-05-09T13:49:47.752Z,20.46
2023-05-09T13:52:50.184Z,20.44
2023-05-09T13:55:52.090Z,20.45
2023-05-09T13:58:53.802Z,20.44
2023-05-09T14:01:57.512Z,20.45
2023-05-09T14:04:59.154Z,20.46
2023-05-09T14:08:01.700Z,20.43
2023-05-09T14:11:03.357Z,20.45
2023-05-09T14:14:04.906Z,20.46
2023-05-09T14:17:06.554Z,20.42
2023-05-09T14:20:08.781Z,20.42
2023-05-09T14:23:10.461Z,20.46
2023-05-09T14:26:12.196Z,20.48
2023-05-09T14:29:13.763Z,20.50
2023-05-09T14:32:15.332Z,20.50
2023-05-09T14:35:17.232Z,20.53
2023-05-09T14:38:18.995Z,20.57
2023-05-09T14:41:21.493Z,20.57
2023-05-09T14:44:24.998Z,20.55
2023-05-09T14:47:26.600Z,20.53
2023-05-09T14:50:28.244Z,20.49
2023-05-09T14:53:30.065Z,20.46
2023-05-09T14:56:31.658Z,20.40
2023-05-09T14:59:36.137Z,20.36
2023-05-09T15:02:40.019Z,20.27
2023-05-09T15:05:42.069Z,20.17
2023-05-09T15:08:43.653Z,20.08
2023-05-09T15:11:48.837Z,20.00
2023-05-09T15:14:53.930Z,19.96
2023-05-09T15:17:55.534Z,19.97
2023-05-09T15:20:57.469Z,19.97
2023-05-09T15:23:59.409Z,19.94
2023-05-09T15:27:00.971Z,19.93
2023-05-09T15:30:03.062Z,19.97
2023-05-09T15:33:04.683Z,20.02
2023-05-09T15:36:06.950Z,20.03
2023-05-09T15:39:08.957Z,20.02
2023-05-09T15:42:12.335Z,20.00
2023-05-09T15:45:14.256Z,20.00
2023-05-09T15:48:16.360Z,19.98
2023-05-09T15:51:18.065Z,19.93
2023-05-09T15:54:20.300Z,19.88
2023-05-09T15:57:22.150Z,19.87
2023-05-09T16:00:23.778Z,19.82
2023-05-09T16:03:25.568Z,19.76
2023-05-09T16:06:28.609Z,19.73
2023-05-09T16:09:30.241Z,19.70
2023-05-09T16:12:32.944Z,19.67
2023-05-09T16:15:35.320Z,19.63
2023-05-09T16:18:36.982Z,19.61
2023-05-09T16:21:39.336Z,19.59
2023-05-09T16:24:40.898Z,19.56
2023-05-09T16:27:42.649Z,19.53
2023-05-09T16:30:44.298Z,19.50
2023-05-09T16:33:47.144Z,19.46
2023-05-09T16:36:48.739Z,19.44
2023-05-09T16:39:50.391Z,19.41
2023-05-09T16:42:53.354Z,19.38
2023-05-09T16:45:55.394Z,19.37
2023-05-09T16:48:57.033Z,19.34
2023-05-09T16:51:59.427Z,19.32
2023-05-09T16:55:01.153Z,19.31
2023-05-09T16:58:02.869Z,19.30
2023-05-09T17:01:04.539Z,19.28
2023-05-09T17:04:06.941Z,19.26
2023-05-09T17:07:09.169Z,19.23
2023-05-09T17:10:11.460Z,19.21
2023-05-09T17:13:13.053Z,19.17
2023-05-09T17:16:14.711Z,19.13
2023-05-09T17:19:16.976Z,19.08
2023-05-09T17:22:18.536Z,19.05
2023-05-09T17:25:20.118Z,19.02
2023-05-09T17:28:21.720Z,19.03
2023-05-09T17:31:23.424Z,19.04
2023-05-09T17:34:24.999Z,19.04
2023-05-09T17:37:26.563Z,19.01
2023-05-09T17:40:28.755Z,18.97
2023-05-09T17:43:30.936Z,18.94
2023-05-09T17:46:32.838Z,18.88
2023-05-09T17:49:34.398Z,18.81
2023-05-09T17:52:37.037Z,18.76
2023-05-09T17:55:39.127Z,18.71
2023-05-09T17:58:41.079Z,18.66
2023-05-09T18:01:42.727Z,18.59
2023-05-09T18:04:46.362Z,18.54
2023-05-09T18:07:47.998Z,18.48
2023-05-09T18:10:49.808Z,18.43
2023-05-09T18:13:51.444Z,18.37
2023-05-09T18:16:53.041Z,18.32
2023-05-09T18:19:54.700Z,18.23
2023-05-09T18:22:57.216Z,18.18
2023-05-09T18:25:58.841Z,18.14
2023-05-09T18:29:00.480Z,18.10
2023-05-09T18:32:02.197Z,18.04
2023-05-09T18:35:04.224Z,18.00
2023-05-09T18:38:05.779Z,17.97
2023-05-09T18:41:09.055Z,17.93
2023-05-09T18:44:10.781Z,17.88
2023-05-09T18:47:12.546Z,18.08
2023-05-09T18:50:14.594Z,17.95
2023-05-09T18:53:16.397Z,17.87
2023-05-09T18:56:20.484Z,17.76
2023-05-09T18:59:23.559Z,17.62
2023-05-09T19:02:25.449Z,17.51
2023-05-09T19:05:27.554Z,17.39
2023-05-09T19:08:29.276Z,17.30
2023-05-09T19:11:30.886Z,17.21
2023-05-09T19:14:32.581Z,17.12
2023-05-09T19:17:34.618Z,17.07
2023-05-09T19:20:36.885Z,17.08
2023-05-09T19:23:39.110Z,17.01
2023-05-09T19:26:40.829Z,16.99
2023-05-09T19:29:42.384Z,16.96
2023-05-09T19:32:44.609Z,16.92
2023-05-09T19:35:46.236Z,16.91
2023-05-09T19:38:47.762Z,16.88
2023-05-09T19:41:49.318Z,16.83
2023-05-09T19:44:52.412Z,16.79
2023-05-09T19:47:54.812Z,16.77
2023-05-09T19:51:00.827Z,16.74
2023-05-09T19:54:03.512Z,16.70
2023-05-09T19:57:06.500Z,16.65
2023-05-09T20:00:08.873Z,16.62
2023-05-09T20:03:10.754Z,16.61
2023-05-09T20:06:15.644Z,16.58
2023-05-09T20:09:20.937Z,16.55
2023-05-09T20:12:22.535Z,16.54
2023-05-09T20:15:24.235Z,16.50
2023-05-09T20:18:26.851Z,16.47
2023-05-09T20:21:28.448Z,16.42
2023-05-09T20:24:33.427Z,16.40
2023-05-09T20:27:37.365Z,16.38
2023-05-09T20:30:38.935Z,16.38
2023-05-09T20:33:41.169Z,16.38
2023-05-09T20:36:43.252Z,16.37
2023-05-09T20:39:45.151Z,16.36
2023-05-09T20:42:47.195Z,16.35
2023-05-09T20:45:49.124Z,16.28
2023-05-09T20:48:50.650Z,16.15
2023-05-09T20:51:52.240Z,15.99
2023-05-09T20:54:53.794Z,15.84
2023-05-09T20:57:55.431Z,15.75
2023-05-09T21:00:57.278Z,15.69
2023-05-09T21:03:59.377Z,15.58
2023-05-09T21:07:00.956Z,15.46
2023-05-09T21:10:02.735Z,15.40
2023-05-09T21:13:04.754Z,15.34
2023-05-09T21:16:06.404Z,15.36
2023-05-09T21:19:08.801Z,15.43
2023-05-09T21:22:10.442Z,15.50
2023-05-09T21:25:12.535Z,15.55
2023-05-09T21:28:15.568Z,15.60
2023-05-09T21:31:17.199Z,15.64
2023-05-09T21:34:18.829Z,15.66
2023-05-09T21:37:20.599Z,15.66
2023-05-09T21:40:22.143Z,15.67
2023-05-09T21:43:24.222Z,15.70
2023-05-09T21:46:25.924Z,15.70
2023-05-09T21:49:29.217Z,15.74
2023-05-09T21:52:30.741Z,15.89
2023-05-09T21:55:32.284Z,15.92
2023-05-09T21:58:34.134Z,15.91
2023-05-09T22:01:35.699Z,15.85
2023-05-09T22:04:37.322Z,15.77
2023-05-09T22:07:39.064Z,15.71
2023-05-09T22:10:40.949Z,15.63
2023-05-09T22:13:42.558Z,15.64
2023-05-09T22:16:44.333Z,15.92
2023-05-09T22:19:46.041Z,15.90
2023-05-09T22:22:47.617Z,15.86
2023-05-09T22:25:49.171Z,15.82
2023-05-09T22:28:51.522Z,15.74
2023-05-09T22:31:54.554Z,15.68
2023-05-09T22:34:56.900Z,15.61
2023-05-09T22:37:58.430Z,15.54
2023-05-09T22:40:59.975Z,15.44
2023-05-09T22:44:01.529Z,15.38
2023-05-09T22:47:03.859Z,15.30
2023-05-09T22:50:06.020Z,15.22
2023-05-09T22:53:08.231Z,15.13
2023-05-09T22:56:09.982Z,15.06
2023-05-09T22:59:11.495Z,14.99
2023-05-09T23:02:13.257Z,14.95
2023-05-09T23:05:14.936Z,14.90
2023-05-09T23:08:16.662Z,14.87
2023-05-09T23:11:18.241Z,14.82
2023-05-09T23:14:19.891Z,14.79
2023-05-09T23:17:22.226Z,14.76
2023-05-09T23:20:23.774Z,14.72
2023-05-09T23:23:25.393Z,14.67
2023-05-09T23:26:27.273Z,14.61
2023-05-09T23:29:29.133Z,14.57
2023-05-09T23:32:30.679Z,14.54
2023-05-09T23:35:32.233Z,14.47
2023-05-09T23:38:33.736Z,14.42
2023-05-09T23:41:35.533Z,14.38
2023-05-09T23:44:37.050Z,14.32
2023-05-09T23:47:38.642Z,14.28
2023-05-09T23:50:40.283Z,14.25
2023-05-09T23:53:41.834Z,14.25
2023-05-09T23:56:43.708Z,14.23
2023-05-09T23:59:45.529Z,14.22
